createdAt,value
2022-09-09T00:02:20.973Z,14.42
2022-09-09T00:04:57.228Z,14.35
2022-09-09T00:07:34.301Z,14.29
2022-09-09T00:10:14.780Z,14.26
2022-09-09T00:12:47.801Z,14.29
2022-09-09T00:15:21.786Z,14.27
2022-09-09T00:18:03.489Z,14.24
2022-09-09T00:20:51.691Z,14.20
2022-09-09T00:23:28.705Z,14.16
2022-09-09T00:26:09.059Z,14.12
2022-09-09T00:28:46.192Z,14.13
2022-09-09T00:31:21.382Z,14.10
2022-09-09T00:33:50.245Z,14.12
2022-09-09T00:36:23.725Z,14.09
2022-09-09T00:38:58.159Z,14.09
2022-09-09T00:41:35.883Z,14.14
2022-09-09T00:44:22.034Z,14.11
2022-09-09T00:47:12.444Z,14.10
2022-09-09T00:49:44.519Z,14.10
2022-09-09T00:52:23.686Z,14.08
2022-09-09T00:55:27.905Z,14.06
2022-09-09T00:57:54.430Z,14.05
2022-09-09T01:00:44.724Z,14.01
2022-09-09T01:03:35.977Z,14.01
2022-09-09T01:06:11.932Z,14.00
2022-09-09T01:09:16.665Z,13.99
2022-09-09T01:12:00.505Z,14.00
2022-09-09T01:14:35.927Z,13.98
2022-09-09T01:17:09.186Z,13.96
2022-09-09T01:19:51.098Z,14.00
2022-09-09T01:22:26.265Z,14.01
2022-09-09T01:25:19.034Z,13.98
2022-09-09T01:27:49.024Z,13.94
2022-09-09T01:30:18.268Z,13.92
2022-09-09T01:32:48.228Z,13.92
2022-09-09T01:35:28.820Z,13.93
2022-09-09T01:37:55.256Z,13.95
2022-09-09T01:40:21.659Z,13.97
2022-09-09T01:42:48.242Z,13.90
2022-09-09T01:45:14.689Z,13.92
2022-09-09T01:47:41.542Z,13.92
2022-09-09T01:50:12.372Z,13.86
2022-09-09T01:52:38.797Z,13.87
2022-09-09T01:55:06.785Z,13.85
2022-09-09T01:57:37.110Z,13.88
2022-09-09T02:00:12.209Z,13.82
2022-09-09T02:02:47.734Z,13.80
2022-09-09T02:05:49.651Z,13.73
2022-09-09T02:08:21.331Z,13.68
2022-09-09T02:10:53.696Z,13.66
2022-09-09T02:13:23.194Z,13.67
2022-09-09T02:16:13.579Z,13.65
2022-09-09T02:18:48.719Z,13.59
2022-09-09T02:21:17.560Z,13.56
2022-09-09T02:23:47.702Z,13.54
2022-09-09T02:26:21.148Z,13.52
2022-09-09T02:28:49.782Z,13.51
2022-09-09T02:31:20.401Z,13.51
2022-09-09T02:33:57.040Z,13.49
2022-09-09T02:36:26.503Z,13.51
2022-09-09T02:38:54.768Z,13.51
2022-09-09T02:41:28.957Z,13.49
2022-09-09T02:43:55.328Z,13.53
2022-09-09T02:46:52.754Z,13.46
2022-09-09T02:50:02.812Z,13.43
2022-09-09T02:53:01.185Z,13.40
2022-09-09T02:55:52.249Z,13.38
2022-09-09T02:58:19.698Z,13.40
2022-09-09T03:00:50.726Z,13.38
2022-09-09T03:03:18.780Z,13.35
2022-09-09T03:05:45.707Z,13.37
2022-09-09T03:08:13.888Z,13.36
2022-09-09T03:10:40.370Z,13.35
2022-09-09T03:13:07.011Z,13.38
2022-09-09T03:15:34.385Z,13.37
2022-09-09T03:18:01.153Z,13.40
2022-09-09T03:20:29.142Z,13.48
2022-09-09T03:22:56.693Z,13.49
2022-09-09T03:25:27.309Z,13.48
2022-09-09T03:27:55.890Z,13.54
2022-09-09T03:30:27.461Z,13.59
2022-09-09T03:32:54.065Z,13.60
2022-09-09T03:35:20.878Z,13.62
2022-09-09T03:37:47.356Z,13.66
2022-09-09T03:40:13.880Z,13.67
2022-09-09T03:42:40.926Z,13.74
2022-09-09T03:45:11.592Z,13.75
2022-09-09T03:47:38.081Z,13.75
2022-09-09T03:50:09.291Z,13.77
2022-09-09T03:52:40.254Z,13.76
2022-09-09T03:55:07.072Z,13.74
2022-09-09T03:57:35.882Z,13.69
2022-09-09T04:00:04.994Z,13.66
2022-09-09T04:02:31.572Z,13.68
2022-09-09T04:04:57.957Z,13.64
2022-09-09T04:07:24.336Z,13.63
2022-09-09T04:09:50.696Z,13.64
2022-09-09T04:12:17.569Z,13.60
2022-09-09T04:14:43.936Z,13.60
2022-09-09T04:17:10.307Z,13.58
2022-09-09T04:19:36.639Z,13.52
2022-09-09T04:22:02.967Z,13.48
2022-09-09T04:24:30.054Z,13.44
2022-09-09T04:26:56.543Z,13.41
2022-09-09T04:29:22.916Z,13.38
2022-09-09T04:31:49.344Z,13.36
2022-09-09T04:34:15.750Z,13.34
2022-09-09T04:36:42.114Z,13.34
2022-09-09T04:39:08.476Z,13.30
2022-09-09T04:41:36.091Z,13.27
2022-09-09T04:44:02.513Z,13.21
2022-09-09T04:46:29.116Z,13.17
2022-09-09T04:48:55.471Z,13.10
2022-09-09T04:51:21.904Z,13.06
2022-09-09T04:53:49.509Z,13.02
2022-09-09T04:56:17.249Z,13.02
2022-09-09T04:58:44.147Z,13.00
2022-09-09T05:01:16.816Z,12.96
2022-09-09T05:03:43.306Z,12.95
2022-09-09T05:06:12.378Z,12.93
2022-09-09T05:08:39.920Z,12.90
2022-09-09T05:11:17.300Z,12.93
2022-09-09T05:13:44.204Z,12.93
2022-09-09T05:16:12.155Z,12.95
2022-09-09T05:18:40.263Z,12.94
2022-09-09T05:21:07.305Z,12.93
2022-09-09T05:23:35.139Z,12.95
2022-09-09T05:26:02.280Z,12.92
2022-09-09T05:28:29.387Z,12.92
2022-09-09T05:31:01.573Z,12.96
2022-09-09T05:33:29.332Z,13.01
2022-09-09T05:35:59.304Z,13.01
2022-09-09T05:38:28.697Z,13.05
2022-09-09T05:40:56.949Z,13.09
2022-09-09T05:43:24.690Z,13.13
2022-09-09T05:46:02.672Z,13.19
2022-09-09T05:48:30.862Z,13.23
2022-09-09T05:50:57.585Z,13.32
2022-09-09T05:53:23.919Z,13.40
2022-09-09T05:55:50.518Z,13.45
2022-09-09T05:58:17.776Z,13.55
2022-09-09T06:00:45.055Z,13.63
2022-09-09T06:03:13.010Z,13.68
2022-09-09T06:05:39.471Z,13.82
2022-09-09T06:08:05.834Z,13.93
2022-09-09T06:10:32.181Z,14.01
2022-09-09T06:12:58.534Z,14.21
2022-09-09T06:15:24.909Z,14.33
2022-09-09T06:17:56.366Z,14.34
2022-09-09T06:20:23.200Z,14.24
2022-09-09T06:22:49.670Z,14.27
2022-09-09T06:25:16.021Z,14.32
2022-09-09T06:27:43.034Z,14.29
2022-09-09T06:30:10.640Z,14.20
2022-09-09T06:32:38.745Z,14.25
2022-09-09T06:35:05.641Z,14.42
2022-09-09T06:37:32.061Z,14.52
2022-09-09T06:39:58.637Z,14.66
2022-09-09T06:42:25.086Z,14.76
2022-09-09T06:44:51.460Z,14.78
2022-09-09T06:47:17.772Z,14.72
2022-09-09T06:49:48.195Z,14.68
2022-09-09T06:52:14.797Z,14.63
2022-09-09T06:54:41.228Z,14.55
2022-09-09T06:57:27.109Z,14.57
2022-09-09T06:59:54.511Z,14.64
2022-09-09T07:02:21.134Z,15.11
2022-09-09T07:04:47.735Z,15.52
2022-09-09T07:07:16.338Z,15.63
2022-09-09T07:09:42.720Z,15.84
2022-09-09T07:12:09.039Z,16.18
2022-09-09T07:14:38.208Z,15.99
2022-09-09T07:17:04.601Z,15.89
2022-09-09T07:19:30.973Z,15.68
2022-09-09T07:21:57.315Z,15.74
2022-09-09T07:24:24.590Z,15.76
2022-09-09T07:26:50.967Z,15.78
2022-09-09T07:29:20.558Z,15.72
2022-09-09T07:31:47.369Z,15.77
2022-09-09T07:34:13.994Z,15.71
2022-09-09T07:36:41.291Z,15.72
2022-09-09T07:39:13.940Z,15.98
2022-09-09T07:41:43.476Z,16.21
2022-09-09T07:44:25.610Z,16.62
2022-09-09T07:46:52.294Z,16.61
2022-09-09T07:49:24.406Z,16.79
2022-09-09T07:51:54.331Z,16.82
2022-09-09T07:54:21.530Z,16.74
2022-09-09T07:56:48.095Z,16.60
2022-09-09T07:59:14.612Z,16.53
2022-09-09T08:01:44.741Z,16.81
2022-09-09T08:04:17.486Z,16.91
2022-09-09T08:06:49.630Z,16.78
2022-09-09T08:09:16.566Z,17.02
2022-09-09T08:11:43.517Z,17.31
2022-09-09T08:14:11.217Z,17.02
2022-09-09T08:16:41.347Z,17.10
2022-09-09T08:19:08.322Z,17.19
2022-09-09T08:21:37.481Z,17.41
2022-09-09T08:24:06.048Z,17.80
2022-09-09T08:26:35.377Z,18.04
2022-09-09T08:29:03.642Z,17.94
2022-09-09T08:31:32.597Z,17.82
2022-09-09T08:34:06.059Z,17.62
2022-09-09T08:36:35.329Z,17.40
2022-09-09T08:39:02.398Z,17.38
2022-09-09T08:41:37.537Z,17.36
2022-09-09T08:44:42.010Z,17.24
2022-09-09T08:47:10.749Z,17.08
2022-09-09T08:49:57.107Z,16.98
2022-09-09T08:52:43.670Z,17.00
2022-09-09T08:55:53.923Z,17.05
2022-09-09T08:58:24.303Z,16.88
2022-09-09T09:00:56.518Z,16.77
2022-09-09T09:03:34.063Z,16.68
2022-09-09T09:06:31.204Z,16.63
2022-09-09T09:09:03.550Z,16.62
2022-09-09T09:11:38.856Z,16.50
2022-09-09T09:14:15.534Z,16.43
2022-09-09T09:16:55.571Z,16.32
2022-09-09T09:19:27.055Z,16.24
2022-09-09T09:22:15.477Z,16.22
2022-09-09T09:25:00.740Z,16.29
2022-09-09T09:27:55.964Z,16.31
2022-09-09T09:30:30.294Z,16.37
2022-09-09T09:33:06.869Z,16.55
2022-09-09T09:35:37.331Z,16.66
2022-09-09T09:41:15.160Z,16.70
2022-09-09T09:43:45.342Z,16.94
2022-09-09T09:46:24.653Z,17.31
2022-09-09T09:48:59.121Z,17.35
2022-09-09T09:51:26.417Z,17.11
2022-09-09T09:53:54.777Z,17.01
2022-09-09T09:56:31.406Z,17.01
2022-09-09T09:58:57.940Z,17.05
2022-09-09T10:01:28.854Z,16.84
2022-09-09T10:03:59.974Z,16.78
2022-09-09T10:06:39.017Z,16.67
2022-09-09T10:09:27.768Z,16.58
2022-09-09T10:12:06.458Z,16.63
2022-09-09T10:15:00.790Z,16.90
2022-09-09T10:17:55.914Z,17.14
2022-09-09T10:20:34.222Z,17.40
2022-09-09T10:23:23.748Z,17.31
2022-09-09T10:26:02.120Z,17.10
2022-09-09T10:28:37.628Z,17.20
2022-09-09T10:31:26.099Z,17.29
2022-09-09T10:33:59.150Z,17.55
2022-09-09T10:36:30.571Z,18.14
2022-09-09T10:39:27.501Z,17.98
2022-09-09T10:42:07.423Z,18.01
2022-09-09T10:45:00.204Z,18.14
2022-09-09T10:47:45.008Z,17.80
2022-09-09T10:50:28.064Z,17.30
2022-09-09T10:53:16.262Z,17.04
2022-09-09T10:55:57.692Z,16.98
2022-09-09T10:58:39.364Z,17.01
2022-09-09T11:01:26.799Z,17.40
2022-09-09T11:04:01.798Z,17.75
2022-09-09T11:06:43.413Z,17.65
2022-09-09T11:09:18.016Z,17.89
2022-09-09T11:11:54.906Z,17.83
2022-09-09T11:14:37.359Z,17.65
2022-09-09T11:17:19.098Z,17.30
2022-09-09T11:19:45.865Z,17.32
2022-09-09T11:22:27.501Z,17.61
2022-09-09T11:25:01.146Z,17.83
2022-09-09T11:27:37.794Z,18.62
2022-09-09T11:30:13.745Z,18.39
2022-09-09T11:33:03.009Z,18.48
2022-09-09T11:36:07.979Z,18.41
2022-09-09T11:38:47.754Z,18.43
2022-09-09T11:41:21.001Z,18.58
2022-09-09T11:43:52.879Z,18.65
2022-09-09T11:46:23.158Z,18.36
2022-09-09T11:49:01.433Z,18.74
2022-09-09T11:51:31.289Z,18.65
2022-09-09T11:54:03.704Z,18.46
2022-09-09T11:56:33.042Z,18.22
2022-09-09T11:59:06.387Z,18.10
2022-09-09T12:01:43.749Z,17.79
2022-09-09T12:04:10.041Z,17.53
2022-09-09T12:07:03.584Z,17.54
2022-09-09T12:09:57.515Z,17.61
2022-09-09T12:12:35.214Z,17.71
2022-09-09T12:15:18.751Z,17.60
2022-09-09T12:17:54.152Z,17.45
2022-09-09T12:20:53.514Z,17.00
2022-09-09T12:23:41.260Z,16.57
2022-09-09T12:26:29.838Z,16.42
2022-09-09T12:29:14.655Z,16.08
2022-09-09T12:31:46.997Z,15.92
2022-09-09T12:34:26.399Z,16.24
2022-09-09T12:37:00.856Z,17.07
2022-09-09T12:39:38.152Z,17.81
2022-09-09T12:42:05.216Z,18.26
2022-09-09T12:44:33.202Z,18.85
2022-09-09T12:47:03.263Z,19.29
2022-09-09T12:49:35.202Z,18.76
2022-09-09T12:52:27.581Z,18.08
2022-09-09T12:54:54.729Z,17.79
2022-09-09T12:57:26.384Z,17.70
2022-09-09T12:59:54.157Z,18.70
2022-09-09T13:02:26.960Z,19.54
2022-09-09T13:04:54.786Z,19.86
2022-09-09T13:07:22.605Z,18.99
2022-09-09T13:09:49.945Z,18.41
2022-09-09T13:12:20.456Z,19.05
2022-09-09T13:14:51.745Z,19.31
2022-09-09T13:17:26.632Z,18.93
2022-09-09T13:19:54.220Z,19.10
2022-09-09T13:22:31.978Z,19.25
2022-09-09T13:25:05.484Z,19.14
2022-09-09T13:27:41.881Z,19.68
2022-09-09T13:30:45.382Z,19.08
2022-09-09T13:33:15.410Z,18.70
2022-09-09T13:35:58.169Z,19.48
2022-09-09T13:38:27.758Z,19.85
2022-09-09T13:41:05.628Z,20.71
2022-09-09T13:43:38.688Z,20.97
2022-09-09T13:46:23.953Z,20.03
2022-09-09T13:49:19.571Z,19.57
2022-09-09T13:52:03.668Z,19.40
2022-09-09T13:54:31.645Z,19.93
2022-09-09T13:56:57.969Z,20.13
2022-09-09T13:59:30.715Z,19.50
2022-09-09T14:02:09.215Z,19.70
2022-09-09T14:04:36.003Z,19.78
2022-09-09T14:07:03.491Z,18.71
2022-09-09T14:09:29.955Z,18.09
2022-09-09T14:11:56.299Z,17.89
2022-09-09T14:14:22.662Z,17.75
2022-09-09T14:16:49.002Z,17.77
2022-09-09T14:19:15.475Z,17.63
2022-09-09T14:21:41.910Z,17.49
2022-09-09T14:24:08.341Z,17.32
2022-09-09T14:26:34.684Z,17.27
2022-09-09T14:29:02.419Z,17.14
2022-09-09T14:31:28.997Z,17.10
2022-09-09T14:33:55.757Z,16.99
2022-09-09T14:36:22.428Z,16.92
2022-09-09T14:38:49.112Z,16.71
2022-09-09T14:41:18.256Z,16.52
2022-09-09T14:43:45.596Z,16.20
2022-09-09T14:46:14.464Z,15.96
2022-09-09T14:48:41.822Z,15.84
2022-09-09T14:51:17.770Z,15.88
2022-09-09T14:53:45.324Z,15.93
2022-09-09T14:56:25.026Z,16.00
2022-09-09T14:58:53.474Z,16.28
2022-09-09T15:01:21.547Z,16.81
2022-09-09T15:03:59.715Z,17.27
2022-09-09T15:06:28.351Z,17.24
2022-09-09T15:08:54.833Z,16.96
2022-09-09T15:11:21.926Z,16.72
2022-09-09T15:13:49.353Z,16.45
2022-09-09T15:16:18.051Z,16.31
2022-09-09T15:18:47.034Z,16.21
2022-09-09T15:21:16.414Z,16.18
2022-09-09T15:23:43.929Z,16.16
2022-09-09T15:26:10.828Z,16.05
2022-09-09T15:28:39.330Z,15.97
2022-09-09T15:31:19.971Z,15.95
2022-09-09T15:33:54.860Z,15.87
2022-09-09T15:36:26.020Z,15.85
2022-09-09T15:38:52.928Z,15.85
2022-09-09T15:41:21.735Z,15.78
2022-09-09T15:43:50.834Z,15.81
2022-09-09T15:46:36.893Z,15.79
2022-09-09T15:49:07.402Z,15.73
2022-09-09T15:51:43.291Z,15.71
2022-09-09T15:54:17.817Z,15.71
2022-09-09T15:56:44.935Z,15.69
2022-09-09T15:59:12.194Z,15.59
2022-09-09T16:01:40.542Z,15.64
2022-09-09T16:04:07.368Z,15.62
2022-09-09T16:06:34.260Z,15.61
2022-09-09T16:09:04.189Z,15.60
2022-09-09T16:11:33.825Z,15.54
2022-09-09T16:14:00.855Z,15.53
2022-09-09T16:16:30.489Z,15.53
2022-09-09T16:19:03.223Z,15.53
2022-09-09T16:21:32.601Z,15.51
2022-09-09T16:24:01.782Z,15.48
2022-09-09T16:26:29.445Z,15.42
2022-09-09T16:28:55.874Z,15.42
2022-09-09T16:31:24.754Z,15.45
2022-09-09T16:33:51.894Z,15.38
2022-09-09T16:36:32.807Z,15.46
2022-09-09T16:39:00.984Z,15.54
2022-09-09T16:41:29.023Z,15.58
2022-09-09T16:44:00.366Z,15.65
2022-09-09T16:46:29.255Z,15.63
2022-09-09T16:48:58.646Z,15.63
2022-09-09T16:51:28.247Z,15.66
2022-09-09T16:53:55.762Z,15.65
2022-09-09T16:56:26.681Z,15.71
2022-09-09T16:58:56.515Z,15.93
2022-09-09T17:01:32.440Z,16.13
2022-09-09T17:04:01.942Z,16.34
2022-09-09T17:06:30.267Z,16.70
2022-09-09T17:09:02.246Z,16.85
2022-09-09T17:11:29.757Z,16.93
2022-09-09T17:13:59.035Z,16.92
2022-09-09T17:16:28.560Z,16.65
2022-09-09T17:18:56.552Z,16.39
2022-09-09T17:21:26.258Z,16.22
2022-09-09T17:23:53.447Z,16.22
2022-09-09T17:26:22.185Z,16.19
2022-09-09T17:28:48.861Z,16.11
2022-09-09T17:31:17.913Z,16.01
2022-09-09T17:33:49.337Z,15.88
2022-09-09T17:36:19.114Z,15.91
2022-09-09T17:38:46.353Z,15.90
2022-09-09T17:41:18.662Z,15.86
2022-09-09T17:43:46.298Z,15.74
2022-09-09T17:46:24.250Z,15.67
2022-09-09T17:48:53.680Z,15.60
2022-09-09T17:51:25.231Z,15.49
2022-09-09T17:53:54.508Z,15.41
2022-09-09T17:56:22.249Z,15.33
2022-09-09T17:58:50.434Z,15.25
2022-09-09T18:01:24.982Z,15.14
2022-09-09T18:03:52.239Z,15.07
2022-09-09T18:06:22.225Z,15.03
2022-09-09T18:08:51.024Z,14.95
2022-09-09T18:11:19.267Z,14.93
2022-09-09T18:13:54.845Z,14.91
2022-09-09T18:16:22.920Z,14.90
2022-09-09T18:18:50.471Z,14.87
2022-09-09T18:21:18.737Z,14.89
2022-09-09T18:23:49.366Z,14.89
2022-09-09T18:26:21.516Z,14.88
2022-09-09T18:28:53.168Z,14.92
2022-09-09T18:31:23.471Z,14.87
2022-09-09T18:33:50.840Z,14.82
2022-09-09T18:36:21.476Z,14.81
2022-09-09T18:38:48.462Z,14.77
2022-09-09T18:41:14.994Z,14.67
2022-09-09T18:43:43.048Z,14.64
2022-09-09T18:46:10.897Z,14.62
2022-09-09T18:48:37.923Z,14.63
2022-09-09T18:51:06.073Z,14.59
2022-09-09T18:53:33.582Z,14.61
2022-09-09T18:56:02.045Z,14.60
2022-09-09T18:58:32.536Z,14.65
2022-09-09T19:00:59.920Z,14.72
2022-09-09T19:03:28.148Z,14.81
2022-09-09T19:06:00.905Z,14.82
2022-09-09T19:08:27.276Z,14.80
2022-09-09T19:10:54.437Z,14.83
2022-09-09T19:13:20.870Z,14.79
2022-09-09T19:15:47.288Z,14.78
2022-09-09T19:18:13.671Z,14.73
2022-09-09T19:20:40.153Z,14.65
2022-09-09T19:23:06.493Z,14.64
2022-09-09T19:25:37.463Z,14.66
2022-09-09T19:28:06.056Z,14.65
2022-09-09T19:30:35.705Z,14.69
2022-09-09T19:33:02.176Z,14.73
2022-09-09T19:35:29.239Z,14.70
2022-09-09T19:37:58.982Z,14.77
2022-09-09T19:40:25.523Z,14.79
2022-09-09T19:42:53.415Z,14.81
2022-09-09T19:45:20.043Z,14.76
2022-09-09T19:47:46.377Z,14.81
2022-09-09T19:50:12.723Z,14.71
2022-09-09T19:52:39.073Z,14.69
2022-09-09T19:55:05.893Z,14.67
2022-09-09T19:57:32.334Z,14.61
2022-09-09T20:00:00.746Z,14.56
2022-09-09T20:02:28.734Z,14.49
2022-09-09T20:04:55.146Z,14.48
2022-09-09T20:07:21.476Z,14.50
2022-09-09T20:09:47.992Z,14.41
2022-09-09T20:12:14.344Z,14.41
2022-09-09T20:14:40.745Z,14.41
2022-09-09T20:17:07.170Z,14.37
2022-09-09T20:19:34.154Z,14.35
2022-09-09T20:22:00.578Z,14.37
2022-09-09T20:24:26.922Z,14.44
2022-09-09T20:26:53.246Z,14.46
2022-09-09T20:29:20.518Z,14.47
2022-09-09T20:31:47.870Z,14.45
2022-09-09T20:34:21.709Z,14.45
2022-09-09T20:36:48.978Z,14.48
2022-09-09T20:39:19.885Z,14.50
2022-09-09T20:41:47.064Z,14.50
2022-09-09T20:44:19.967Z,14.53
2022-09-09T20:46:48.358Z,14.54
2022-09-09T20:49:16.472Z,14.55
2022-09-09T20:51:43.310Z,14.55
2022-09-09T20:54:13.811Z,14.55
2022-09-09T20:56:42.614Z,14.56
2022-09-09T20:59:12.630Z,14.53
2022-09-09T21:01:40.318Z,14.49
2022-09-09T21:04:08.144Z,14.51
2022-09-09T21:06:34.497Z,14.55
2022-09-09T21:09:00.846Z,14.55
2022-09-09T21:11:27.232Z,14.54
2022-09-09T21:13:53.654Z,14.55
2022-09-09T21:16:21.156Z,14.54
2022-09-09T21:18:50.754Z,14.53
2022-09-09T21:21:21.291Z,14.53
2022-09-09T21:23:48.856Z,14.53
2022-09-09T21:26:15.262Z,14.48
2022-09-09T21:28:41.610Z,14.47
2022-09-09T21:31:15.000Z,14.47
2022-09-09T21:33:41.856Z,14.45
2022-09-09T21:36:09.237Z,14.45
2022-09-09T21:38:35.602Z,14.44
2022-09-09T21:41:13.943Z,14.44
2022-09-09T21:43:42.096Z,14.42
2022-09-09T21:46:14.298Z,14.42
2022-09-09T21:48:40.847Z,14.42
2022-09-09T21:51:10.706Z,14.45
2022-09-09T21:53:38.520Z,14.41
2022-09-09T21:56:12.111Z,14.40
2022-09-09T21:58:39.485Z,14.38
2022-09-09T22:01:11.310Z,14.38
2022-09-09T22:03:39.014Z,14.34
2022-09-09T22:06:11.718Z,14.36
2022-09-09T22:08:38.278Z,14.37
2022-09-09T22:11:19.597Z,14.35
2022-09-09T22:13:46.153Z,14.33
2022-09-09T22:16:14.846Z,14.30
2022-09-09T22:18:41.758Z,14.26
2022-09-09T22:21:18.304Z,14.18
2022-09-09T22:23:47.645Z,14.08
2022-09-09T22:26:15.045Z,14.08
2022-09-09T22:28:41.524Z,14.07
2022-09-09T22:31:07.952Z,14.10
2022-09-09T22:33:34.962Z,14.08
2022-09-09T22:36:01.629Z,14.05
2022-09-09T22:38:27.989Z,14.01
2022-09-09T22:40:54.631Z,13.92
2022-09-09T22:43:22.310Z,13.89
2022-09-09T22:45:49.934Z,13.82
2022-09-09T22:48:16.357Z,13.77
2022-09-09T22:50:43.051Z,13.74
2022-09-09T22:53:13.897Z,13.69
2022-09-09T22:55:40.628Z,13.66
2022-09-09T22:58:07.196Z,13.62
2022-09-09T23:00:33.638Z,13.60
2022-09-09T23:02:59.991Z,13.57
2022-09-09T23:05:27.496Z,13.58
2022-09-09T23:07:57.508Z,13.62
2022-09-09T23:10:24.202Z,13.62
2022-09-09T23:12:50.532Z,13.61
2022-09-09T23:15:17.245Z,13.59
2022-09-09T23:17:43.580Z,13.57
2022-09-09T23:20:10.550Z,13.56
2022-09-09T23:22:38.742Z,13.64
2022-09-09T23:25:05.890Z,13.66
2022-09-09T23:27:33.577Z,13.68
2022-09-09T23:29:59.962Z,13.68
2022-09-09T23:32:26.452Z,13.67
2022-09-09T23:34:52.771Z,13.66
2022-09-09T23:37:19.157Z,13.67
2022-09-09T23:39:45.537Z,13.66
2022-09-09T23:42:11.999Z,13.70
2022-09-09T23:44:39.474Z,13.67
2022-09-09T23:47:07.400Z,13.63
2022-09-09T23:49:34.804Z,13.63
2022-09-09T23:52:05.267Z,13.63
2022-09-09T23:54:32.629Z,13.65
2022-09-09T23:56:59.218Z,13.67
2022-09-09T23:59:25.944Z,13.69
